createdAt,value
2023-04-13T00:00:03.531Z,7.90
2023-04-13T00:01:03.580Z,7.80
2023-04-13T00:02:03.626Z,7.80
2023-04-13T00:03:03.792Z,7.80
2023-04-13T00:04:03.077Z,7.80
2023-04-13T00:05:02.712Z,7.80
2023-04-13T00:06:02.637Z,7.80
2023-04-13T00:07:02.786Z,7.80
2023-04-13T00:08:02.853Z,7.80
2023-04-13T00:09:02.885Z,7.70
2023-04-13T00:10:03.175Z,7.70
2023-04-13T00:11:03.287Z,7.70
2023-04-13T00:12:03.357Z,7.70
2023-04-13T00:13:03.501Z,7.70
2023-04-13T00:14:03.611Z,7.70
2023-04-13T00:15:02.760Z,7.70
2023-04-13T00:16:02.789Z,7.70
2023-04-13T00:17:03.177Z,7.70
2023-04-13T00:18:03.044Z,7.70
2023-04-13T00:19:03.073Z,7.70
2023-04-13T00:20:03.489Z,7.70
2023-04-13T00:21:03.506Z,7.70
2023-04-13T00:22:03.483Z,7.70
2023-04-13T00:23:03.507Z,7.60
2023-04-13T00:24:03.516Z,7.70
2023-04-13T00:25:02.639Z,7.60
2023-04-13T00:26:02.650Z,7.60
2023-04-13T00:27:03.492Z,7.60
2023-04-13T00:28:03.786Z,7.60
2023-04-13T00:29:03.550Z,7.60
2023-04-13T00:30:02.669Z,7.60
2023-04-13T00:31:02.864Z,7.60
2023-04-13T00:32:02.860Z,7.60
2023-04-13T00:33:02.890Z,7.60
2023-04-13T00:34:02.881Z,7.60
2023-04-13T00:35:02.877Z,7.60
2023-04-13T00:36:02.983Z,7.50
2023-04-13T00:37:02.856Z,7.50
2023-04-13T00:38:03.183Z,7.50
2023-04-13T00:39:02.906Z,7.50
2023-04-13T00:40:03.303Z,7.50
2023-04-13T00:41:03.455Z,7.50
2023-04-13T00:42:03.450Z,7.50
2023-04-13T00:43:03.502Z,7.50
2023-04-13T00:44:03.577Z,7.50
2023-04-13T00:45:02.736Z,7.50
2023-04-13T00:46:02.788Z,7.50
2023-04-13T00:47:02.794Z,7.50
2023-04-13T00:48:02.918Z,7.50
2023-04-13T00:49:02.912Z,7.50
2023-04-13T00:50:02.909Z,7.50
2023-04-13T00:51:02.979Z,7.50
2023-04-13T00:52:03.111Z,7.50
2023-04-13T00:53:03.173Z,7.50
2023-04-13T00:54:03.101Z,7.50
2023-04-13T00:55:03.166Z,7.50
2023-04-13T00:56:03.236Z,7.50
2023-04-13T00:57:03.309Z,7.50
2023-04-13T00:58:03.404Z,7.50
2023-04-13T00:59:03.428Z,7.50
2023-04-13T01:00:03.455Z,7.50
2023-04-13T01:01:03.601Z,7.50
2023-04-13T01:02:02.639Z,7.50
2023-04-13T01:03:02.721Z,7.50
2023-04-13T01:04:02.799Z,7.50
2023-04-13T01:05:02.899Z,7.50
2023-04-13T01:06:02.857Z,7.50
2023-04-13T01:07:02.876Z,7.50
2023-04-13T01:08:02.939Z,7.50
2023-04-13T01:09:02.959Z,7.50
2023-04-13T01:10:02.989Z,7.50
2023-04-13T01:11:02.992Z,7.50
2023-04-13T01:12:03.009Z,7.40
2023-04-13T01:13:03.022Z,7.40
2023-04-13T01:14:03.014Z,7.40
2023-04-13T01:15:03.176Z,7.40
2023-04-13T01:16:03.267Z,7.40
2023-04-13T01:17:03.262Z,7.40
2023-04-13T01:18:03.258Z,7.40
2023-04-13T01:19:03.269Z,7.40
2023-04-13T01:20:03.283Z,7.40
2023-04-13T01:21:03.341Z,7.40
2023-04-13T01:22:03.358Z,7.40
2023-04-13T01:23:03.317Z,7.40
2023-04-13T01:24:03.351Z,7.40
2023-04-13T01:25:03.309Z,7.40
2023-04-13T01:26:03.362Z,7.40
2023-04-13T01:27:03.462Z,7.40
2023-04-13T01:28:03.424Z,7.40
2023-04-13T01:29:03.536Z,7.40
2023-04-13T01:30:03.506Z,7.40
2023-04-13T01:31:03.675Z,7.30
2023-04-13T01:32:02.688Z,7.30
2023-04-13T01:33:02.795Z,7.30
2023-04-13T01:34:02.731Z,7.30
2023-04-13T01:35:02.799Z,7.30
2023-04-13T01:36:02.685Z,7.30
2023-04-13T01:37:02.742Z,7.30
2023-04-13T01:38:02.842Z,7.30
2023-04-13T01:39:02.994Z,7.30
2023-04-13T01:40:02.940Z,7.30
2023-04-13T01:41:02.970Z,7.30
2023-04-13T01:42:02.974Z,7.30
2023-04-13T01:43:02.989Z,7.30
2023-04-13T01:44:03.171Z,7.30
2023-04-13T01:45:03.159Z,7.30
2023-04-13T01:46:03.183Z,7.30
2023-04-13T01:47:03.226Z,7.30
2023-04-13T01:48:03.221Z,7.30
2023-04-13T01:49:03.250Z,7.30
2023-04-13T01:50:03.310Z,7.30
2023-04-13T01:51:03.307Z,7.30
2023-04-13T01:52:03.304Z,7.30
2023-04-13T01:53:03.392Z,7.30
2023-04-13T01:54:03.463Z,7.30
2023-04-13T01:55:03.450Z,7.30
2023-04-13T01:56:03.626Z,7.30
2023-04-13T01:57:03.590Z,7.30
2023-04-13T01:58:02.765Z,7.30
2023-04-13T01:59:02.698Z,7.30
2023-04-13T02:00:03.137Z,7.30
2023-04-13T02:01:03.279Z,7.20
2023-04-13T02:02:03.209Z,7.20
2023-04-13T02:03:03.351Z,7.20
2023-04-13T02:04:03.784Z,7.20
2023-04-13T02:05:03.426Z,7.20
2023-04-13T02:06:03.380Z,7.20
2023-04-13T02:07:03.409Z,7.20
2023-04-13T02:08:03.533Z,7.20
2023-04-13T02:09:03.635Z,7.20
2023-04-13T02:10:02.645Z,7.20
2023-04-13T02:11:03.634Z,7.20
2023-04-13T02:12:02.599Z,7.20
2023-04-13T02:13:02.676Z,7.20
2023-04-13T02:14:02.888Z,7.20
2023-04-13T02:15:02.855Z,7.20
2023-04-13T02:16:02.987Z,7.10
2023-04-13T02:17:03.135Z,7.10
2023-04-13T02:18:03.159Z,7.10
2023-04-13T02:19:03.251Z,7.10
2023-04-13T02:20:03.168Z,7.10
2023-04-13T02:21:03.217Z,7.10
2023-04-13T02:22:03.321Z,7.10
2023-04-13T02:23:03.393Z,7.10
2023-04-13T02:24:03.446Z,7.10
2023-04-13T02:25:03.496Z,7.10
2023-04-13T02:26:03.557Z,7.10
2023-04-13T02:27:03.478Z,7.10
2023-04-13T02:28:03.533Z,7.00
2023-04-13T02:29:03.473Z,7.00
2023-04-13T02:30:03.529Z,7.00
2023-04-13T02:31:03.473Z,7.00
2023-04-13T02:32:02.623Z,7.00
2023-04-13T02:33:02.741Z,7.00
2023-04-13T02:34:02.835Z,7.00
2023-04-13T02:35:03.384Z,7.00
2023-04-13T02:36:03.474Z,7.00
2023-04-13T02:37:03.513Z,7.00
2023-04-13T02:38:03.489Z,6.90
2023-04-13T02:39:03.465Z,7.00
2023-04-13T02:40:03.562Z,7.00
2023-04-13T02:41:03.554Z,6.90
2023-04-13T02:42:02.637Z,6.90
2023-04-13T02:43:02.622Z,6.90
2023-04-13T02:44:02.777Z,6.90
2023-04-13T02:45:02.847Z,6.90
2023-04-13T02:46:02.980Z,6.90
2023-04-13T02:47:02.899Z,6.90
2023-04-13T02:48:02.952Z,6.90
2023-04-13T02:49:03.001Z,6.90
2023-04-13T02:50:03.076Z,6.90
2023-04-13T02:51:03.040Z,6.90
2023-04-13T02:52:03.045Z,6.80
2023-04-13T02:53:03.020Z,6.80
2023-04-13T02:54:03.078Z,6.80
2023-04-13T02:55:03.086Z,6.80
2023-04-13T02:56:02.971Z,6.80
2023-04-13T02:57:03.130Z,6.80
2023-04-13T02:58:03.092Z,6.80
2023-04-13T02:59:03.148Z,6.80
2023-04-13T03:00:03.204Z,6.80
2023-04-13T03:01:03.214Z,6.80
2023-04-13T03:02:03.260Z,6.80
2023-04-13T03:03:03.453Z,6.80
2023-04-13T03:04:03.378Z,6.80
2023-04-13T03:05:03.417Z,6.70
2023-04-13T03:06:03.385Z,6.70
2023-04-13T03:07:03.478Z,6.70
2023-04-13T03:08:03.577Z,6.80
2023-04-13T03:09:02.703Z,6.70
2023-04-13T03:10:02.808Z,6.70
2023-04-13T03:11:02.910Z,6.70
2023-04-13T03:12:02.995Z,6.70
2023-04-13T03:13:03.079Z,6.70
2023-04-13T03:14:03.084Z,6.70
2023-04-13T03:15:03.195Z,6.70
2023-04-13T03:16:03.315Z,6.70
2023-04-13T03:17:03.500Z,6.70
2023-04-13T03:18:03.420Z,6.70
2023-04-13T03:19:03.450Z,6.70
2023-04-13T03:20:03.457Z,6.70
2023-04-13T03:21:03.498Z,6.70
2023-04-13T03:22:02.621Z,6.70
2023-04-13T03:23:02.661Z,6.70
2023-04-13T03:24:02.615Z,6.70
2023-04-13T03:25:02.743Z,6.70
2023-04-13T03:26:02.640Z,6.70
2023-04-13T03:27:02.832Z,6.70
2023-04-13T03:28:02.880Z,6.70
2023-04-13T03:29:03.000Z,6.70
2023-04-13T03:30:02.940Z,6.70
2023-04-13T03:31:03.060Z,6.70
2023-04-13T03:32:03.015Z,6.70
2023-04-13T03:33:03.043Z,6.70
2023-04-13T03:34:03.067Z,6.70
2023-04-13T03:35:03.175Z,6.70
2023-04-13T03:36:03.148Z,6.70
2023-04-13T03:37:03.256Z,6.70
2023-04-13T03:38:03.403Z,6.70
2023-04-13T03:39:03.393Z,6.60
2023-04-13T03:40:03.595Z,6.60
2023-04-13T03:41:03.611Z,6.60
2023-04-13T03:42:03.564Z,6.60
2023-04-13T03:43:02.679Z,6.60
2023-04-13T03:44:02.661Z,6.60
2023-04-13T03:45:02.737Z,6.60
2023-04-13T03:46:02.700Z,6.60
2023-04-13T03:47:02.687Z,6.60
2023-04-13T03:48:02.811Z,6.60
2023-04-13T03:49:02.647Z,6.60
2023-04-13T03:50:02.714Z,6.60
2023-04-13T03:51:02.736Z,6.50
2023-04-13T03:52:02.723Z,6.50
2023-04-13T03:53:02.817Z,6.50
2023-04-13T03:54:02.875Z,6.50
2023-04-13T03:55:02.841Z,6.50
2023-04-13T03:56:02.921Z,6.50
2023-04-13T03:57:02.977Z,6.50
2023-04-13T03:58:03.033Z,6.40
2023-04-13T03:59:03.173Z,6.40
2023-04-13T04:00:03.140Z,6.40
2023-04-13T04:01:03.190Z,6.40
2023-04-13T04:02:03.267Z,6.40
2023-04-13T04:03:03.292Z,6.40
2023-04-13T04:04:03.743Z,6.40
2023-04-13T04:05:03.449Z,6.40
2023-04-13T04:06:03.444Z,6.40
2023-04-13T04:07:03.409Z,6.40
2023-04-13T04:08:03.379Z,6.30
2023-04-13T04:09:03.487Z,6.30
2023-04-13T04:10:03.529Z,6.30
2023-04-13T04:11:03.592Z,6.30
2023-04-13T04:12:03.533Z,6.30
2023-04-13T04:13:03.546Z,6.30
2023-04-13T04:14:02.645Z,6.30
2023-04-13T04:15:02.619Z,6.30
2023-04-13T04:16:02.680Z,6.30
2023-04-13T04:17:02.811Z,6.30
2023-04-13T04:18:03.173Z,6.30
2023-04-13T04:19:03.302Z,6.30
2023-04-13T04:20:03.378Z,6.30
2023-04-13T04:21:03.458Z,6.30
2023-04-13T04:22:03.636Z,6.30
2023-04-13T04:23:03.615Z,6.30
2023-04-13T04:24:02.623Z,6.30
2023-04-13T04:25:03.004Z,6.30
2023-04-13T04:26:02.920Z,6.30
2023-04-13T04:27:03.029Z,6.30
2023-04-13T04:28:03.009Z,6.30
2023-04-13T04:29:03.118Z,6.30
2023-04-13T04:30:03.098Z,6.30
2023-04-13T04:31:03.169Z,6.30
2023-04-13T04:32:03.164Z,6.30
2023-04-13T04:33:03.202Z,6.30
2023-04-13T04:34:03.138Z,6.30
2023-04-13T04:35:03.205Z,6.30
2023-04-13T04:36:03.295Z,6.20
2023-04-13T04:37:04.015Z,6.20
2023-04-13T04:38:03.353Z,6.20
2023-04-13T04:39:03.332Z,6.20
2023-04-13T04:40:03.298Z,6.20
2023-04-13T04:41:03.534Z,6.20
2023-04-13T04:42:03.704Z,6.20
2023-04-13T04:43:03.673Z,6.20
2023-04-13T04:44:03.552Z,6.20
2023-04-13T04:45:03.592Z,6.20
2023-04-13T04:46:02.681Z,6.20
2023-04-13T04:47:02.763Z,6.20
2023-04-13T04:48:02.911Z,6.20
2023-04-13T04:49:02.895Z,6.20
2023-04-13T04:50:02.904Z,6.20
2023-04-13T04:51:02.873Z,6.20
2023-04-13T04:52:02.875Z,6.30
2023-04-13T04:53:02.872Z,6.30
2023-04-13T04:54:03.017Z,6.20
2023-04-13T04:55:03.139Z,6.30
2023-04-13T04:56:03.036Z,6.30
2023-04-13T04:57:03.199Z,6.30
2023-04-13T04:58:03.233Z,6.30
2023-04-13T04:59:03.185Z,6.30
2023-04-13T05:00:03.230Z,6.30
2023-04-13T05:01:03.202Z,6.30
2023-04-13T05:02:03.334Z,6.30
2023-04-13T05:03:03.415Z,6.30
2023-04-13T05:04:03.360Z,6.30
2023-04-13T05:05:03.503Z,6.30
2023-04-13T05:06:03.603Z,6.30
2023-04-13T05:07:03.555Z,6.30
2023-04-13T05:08:02.589Z,6.30
2023-04-13T05:09:02.618Z,6.30
2023-04-13T05:10:02.807Z,6.30
2023-04-13T05:11:02.765Z,6.30
2023-04-13T05:12:02.822Z,6.40
2023-04-13T05:13:02.805Z,6.40
2023-04-13T05:14:02.780Z,6.40
2023-04-13T05:15:02.872Z,6.40
2023-04-13T05:16:02.984Z,6.40
2023-04-13T05:17:02.903Z,6.40
2023-04-13T05:18:02.947Z,6.40
2023-04-13T05:19:02.940Z,6.40
2023-04-13T05:20:02.957Z,6.40
2023-04-13T05:21:02.901Z,6.40
2023-04-13T05:22:02.987Z,6.40
2023-04-13T05:23:02.906Z,6.50
2023-04-13T05:24:03.019Z,6.40
2023-04-13T05:25:03.012Z,6.50
2023-04-13T05:26:03.166Z,6.50
2023-04-13T05:27:03.303Z,6.50
2023-04-13T05:28:03.245Z,6.50
2023-04-13T05:29:03.316Z,6.50
2023-04-13T05:30:03.438Z,6.50
2023-04-13T05:31:03.279Z,6.50
2023-04-13T05:32:03.418Z,6.50
2023-04-13T05:33:03.354Z,6.50
2023-04-13T05:34:03.325Z,6.50
2023-04-13T05:35:03.244Z,6.50
2023-04-13T05:36:03.353Z,6.50
2023-04-13T05:37:03.589Z,6.60
2023-04-13T05:38:03.537Z,6.60
2023-04-13T05:39:03.528Z,6.60
2023-04-13T05:40:02.713Z,6.60
2023-04-13T05:41:02.686Z,6.60
2023-04-13T05:42:02.717Z,6.60
2023-04-13T05:43:02.702Z,6.60
2023-04-13T05:44:02.813Z,6.60
2023-04-13T05:45:02.849Z,6.60
2023-04-13T05:46:02.861Z,6.60
2023-04-13T05:47:02.924Z,6.60
2023-04-13T05:48:02.859Z,6.70
2023-04-13T05:49:02.925Z,6.70
2023-04-13T05:50:02.862Z,6.70
2023-04-13T05:51:02.991Z,6.70
2023-04-13T05:52:03.158Z,6.70
2023-04-13T05:53:03.069Z,6.70
2023-04-13T05:54:03.028Z,6.70
2023-04-13T05:55:03.093Z,6.70
2023-04-13T05:56:03.159Z,6.70
2023-04-13T05:57:03.220Z,6.70
2023-04-13T05:58:03.245Z,6.70
2023-04-13T05:59:03.200Z,6.70
2023-04-13T06:00:03.235Z,6.80
2023-04-13T06:01:03.353Z,6.80
2023-04-13T06:02:03.479Z,6.80
2023-04-13T06:03:03.643Z,6.80
2023-04-13T06:04:03.825Z,6.80
2023-04-13T06:05:03.476Z,6.80
2023-04-13T06:06:03.568Z,6.80
2023-04-13T06:07:03.501Z,6.80
2023-04-13T06:08:03.571Z,6.80
2023-04-13T06:09:03.650Z,6.80
2023-04-13T06:10:03.593Z,6.80
2023-04-13T06:11:03.613Z,6.90
2023-04-13T06:12:03.631Z,6.90
2023-04-13T06:13:03.601Z,6.90
2023-04-13T06:14:03.622Z,6.90
2023-04-13T06:15:03.487Z,6.90
2023-04-13T06:16:03.632Z,6.90
2023-04-13T06:17:02.835Z,6.90
2023-04-13T06:18:02.863Z,6.90
2023-04-13T06:19:02.919Z,6.90
2023-04-13T06:20:02.868Z,6.90
2023-04-13T06:21:02.788Z,6.90
2023-04-13T06:22:02.880Z,7.00
2023-04-13T06:23:02.845Z,7.00
2023-04-13T06:24:02.928Z,7.00
2023-04-13T06:25:03.052Z,7.00
2023-04-13T06:26:05.193Z,7.00
2023-04-13T06:27:03.037Z,7.00
2023-04-13T06:28:02.987Z,7.00
2023-04-13T06:29:03.065Z,7.00
2023-04-13T06:30:03.108Z,7.00
2023-04-13T06:31:03.093Z,7.00
2023-04-13T06:32:03.094Z,7.00
2023-04-13T06:33:03.087Z,7.00
2023-04-13T06:34:03.063Z,7.00
2023-04-13T06:35:02.993Z,7.10
2023-04-13T06:36:03.077Z,7.00
2023-04-13T06:37:02.996Z,7.10
2023-04-13T06:38:02.952Z,7.10
2023-04-13T06:39:02.979Z,7.10
2023-04-13T06:40:02.923Z,7.10
2023-04-13T06:41:03.048Z,7.10
2023-04-13T06:42:02.970Z,7.10
2023-04-13T06:43:03.109Z,7.10
2023-04-13T06:44:03.062Z,7.10
2023-04-13T06:45:03.183Z,7.10
2023-04-13T06:46:03.130Z,7.10
2023-04-13T06:47:03.151Z,7.20
2023-04-13T06:48:03.178Z,7.20
2023-04-13T06:49:03.094Z,7.20
2023-04-13T06:50:03.123Z,7.30
2023-04-13T06:51:03.141Z,7.30
2023-04-13T06:52:03.201Z,7.30
2023-04-13T06:53:03.277Z,7.40
2023-04-13T06:54:03.255Z,7.40
2023-04-13T06:55:03.109Z,7.40
2023-04-13T06:56:03.166Z,7.50
2023-04-13T06:57:03.352Z,7.50
2023-04-13T06:58:03.236Z,7.50
2023-04-13T06:59:03.442Z,7.50
2023-04-13T07:00:03.325Z,7.50
2023-04-13T07:01:03.508Z,7.60
2023-04-13T07:02:03.792Z,7.60
2023-04-13T07:03:03.596Z,7.60
2023-04-13T07:04:03.621Z,7.60
2023-04-13T07:05:03.472Z,7.60
2023-04-13T07:06:03.560Z,7.60
2023-04-13T07:07:03.522Z,7.60
2023-04-13T07:08:03.462Z,7.70
2023-04-13T07:09:03.393Z,7.70
2023-04-13T07:10:03.478Z,7.70
2023-04-13T07:11:03.435Z,7.70
2023-04-13T07:12:03.531Z,7.80
2023-04-13T07:13:03.548Z,7.80
2023-04-13T07:14:03.490Z,7.90
2023-04-13T07:15:03.459Z,8.00
2023-04-13T07:16:03.532Z,8.00
2023-04-13T07:17:03.493Z,8.10
2023-04-13T07:18:03.524Z,8.20
2023-04-13T07:19:03.479Z,8.20
2023-04-13T07:20:03.569Z,8.30
2023-04-13T07:21:03.610Z,8.40
2023-04-13T07:22:03.520Z,8.50
2023-04-13T07:23:03.643Z,8.50
2023-04-13T07:24:02.748Z,8.60
2023-04-13T07:25:02.797Z,8.60
2023-04-13T07:26:03.268Z,8.70
2023-04-13T07:27:03.429Z,8.70
2023-04-13T07:28:03.381Z,8.80
2023-04-13T07:29:03.413Z,8.80
2023-04-13T07:30:03.507Z,8.90
2023-04-13T07:31:03.536Z,9.00
2023-04-13T07:32:03.523Z,9.00
2023-04-13T07:33:03.603Z,9.10
2023-04-13T07:34:03.563Z,9.10
2023-04-13T07:35:02.707Z,9.10
2023-04-13T07:36:02.681Z,9.10
2023-04-13T07:37:02.660Z,9.10
2023-04-13T07:38:02.838Z,9.10
2023-04-13T07:39:02.981Z,9.10
2023-04-13T07:40:02.976Z,9.10
2023-04-13T07:41:03.123Z,9.20
2023-04-13T07:42:03.044Z,9.10
2023-04-13T07:43:03.001Z,9.20
2023-04-13T07:44:03.035Z,9.20
2023-04-13T07:45:03.072Z,9.20
2023-04-13T07:46:02.954Z,9.20
2023-04-13T07:47:02.827Z,9.20
2023-04-13T07:48:02.747Z,9.20
2023-04-13T07:49:02.895Z,9.20
2023-04-13T07:50:02.747Z,9.20
2023-04-13T07:51:02.675Z,9.20
2023-04-13T07:52:02.742Z,9.20
2023-04-13T07:53:02.667Z,9.20
2023-04-13T07:54:02.721Z,9.20
2023-04-13T07:55:02.643Z,9.20
2023-04-13T07:56:03.622Z,9.20
2023-04-13T07:57:02.660Z,9.20
2023-04-13T07:58:02.798Z,9.10
2023-04-13T07:59:02.887Z,9.10
2023-04-13T08:00:03.043Z,9.10
2023-04-13T08:01:03.008Z,9.10
2023-04-13T08:02:03.115Z,9.10
2023-04-13T08:03:03.326Z,9.10
2023-04-13T08:04:03.350Z,9.10
2023-04-13T08:05:03.462Z,9.10
2023-04-13T08:06:03.409Z,9.10
2023-04-13T08:07:03.313Z,9.20
2023-04-13T08:08:03.441Z,9.20
2023-04-13T08:09:03.367Z,9.20
2023-04-13T08:10:03.352Z,9.20
2023-04-13T08:11:03.351Z,9.20
2023-04-13T08:12:03.272Z,9.20
2023-04-13T08:13:03.395Z,9.20
2023-04-13T08:14:03.521Z,9.20
2023-04-13T08:15:03.500Z,9.20
2023-04-13T08:16:03.440Z,9.20
2023-04-13T08:17:03.922Z,9.20
2023-04-13T08:18:03.577Z,9.20
2023-04-13T08:19:03.497Z,9.20
2023-04-13T08:20:03.604Z,9.20
2023-04-13T08:21:02.722Z,9.20
2023-04-13T08:22:02.714Z,9.20
2023-04-13T08:23:02.951Z,9.30
2023-04-13T08:24:02.877Z,9.30
2023-04-13T08:25:02.920Z,9.30
2023-04-13T08:26:02.948Z,9.30
2023-04-13T08:27:02.873Z,9.30
2023-04-13T08:28:03.012Z,9.30
2023-04-13T08:29:03.010Z,9.30
2023-04-13T08:30:03.149Z,9.30
2023-04-13T08:31:03.223Z,9.30
2023-04-13T08:32:03.200Z,9.30
2023-04-13T08:33:03.201Z,9.30
2023-04-13T08:34:03.100Z,9.30
2023-04-13T08:35:03.475Z,9.40
2023-04-13T08:36:03.314Z,9.40
2023-04-13T08:37:03.477Z,9.40
2023-04-13T08:38:03.638Z,9.40
2023-04-13T08:39:02.728Z,9.40
2023-04-13T08:40:02.774Z,9.50
2023-04-13T08:41:02.708Z,9.50
2023-04-13T08:42:02.641Z,9.50
2023-04-13T08:43:03.335Z,9.50
2023-04-13T08:44:03.562Z,9.50
2023-04-13T08:45:03.525Z,9.60
2023-04-13T08:46:03.508Z,9.60
2023-04-13T08:47:03.587Z,9.60
2023-04-13T08:48:03.574Z,9.70
2023-04-13T08:49:03.576Z,9.70
2023-04-13T08:50:02.810Z,9.70
2023-04-13T08:51:02.731Z,9.70
2023-04-13T08:52:02.809Z,9.80
2023-04-13T08:53:02.737Z,9.80
2023-04-13T08:54:03.294Z,9.80
2023-04-13T08:55:03.388Z,9.80
2023-04-13T08:56:03.324Z,9.80
2023-04-13T08:57:03.450Z,9.80
2023-04-13T08:58:03.432Z,9.80
2023-04-13T08:59:03.438Z,9.80
2023-04-13T09:00:03.407Z,9.80
2023-04-13T09:01:03.434Z,9.80
2023-04-13T09:02:03.488Z,9.80
2023-04-13T09:03:06.191Z,9.90
2023-04-13T09:04:02.930Z,9.90
2023-04-13T09:05:02.839Z,9.90
2023-04-13T09:06:02.848Z,9.90
2023-04-13T09:07:02.824Z,9.80
2023-04-13T09:08:02.788Z,9.90
2023-04-13T09:09:02.739Z,9.80
2023-04-13T09:10:02.968Z,9.90
2023-04-13T09:11:02.886Z,9.80
2023-04-13T09:12:02.969Z,9.80
2023-04-13T09:13:02.898Z,9.80
2023-04-13T09:14:02.789Z,9.80
2023-04-13T09:15:02.836Z,9.80
2023-04-13T09:16:02.848Z,9.80
2023-04-13T09:17:04.610Z,9.80
2023-04-13T09:18:03.549Z,9.80
2023-04-13T09:19:03.653Z,9.80
2023-04-13T09:20:03.710Z,9.70
2023-04-13T09:21:03.584Z,9.70
2023-04-13T09:22:02.743Z,9.70
2023-04-13T09:23:04.980Z,9.70
2023-04-13T09:24:03.336Z,9.70
2023-04-13T09:25:03.407Z,9.70
2023-04-13T09:26:03.309Z,9.70
2023-04-13T09:27:03.382Z,9.70
2023-04-13T09:28:03.320Z,9.70
2023-04-13T09:29:03.437Z,9.70
2023-04-13T09:30:03.418Z,9.70
2023-04-13T09:31:03.531Z,9.70
2023-04-13T09:32:03.410Z,9.80
2023-04-13T09:33:03.503Z,9.80
2023-04-13T09:34:03.495Z,9.80
2023-04-13T09:35:03.416Z,9.90
2023-04-13T09:36:03.481Z,9.90
2023-04-13T09:37:03.568Z,9.90
2023-04-13T09:38:03.459Z,9.90
2023-04-13T09:39:03.414Z,10.00
2023-04-13T09:40:03.560Z,10.00
2023-04-13T09:41:02.742Z,10.00
2023-04-13T09:42:02.815Z,10.00
2023-04-13T09:43:02.876Z,10.00
2023-04-13T09:44:02.998Z,10.00
2023-04-13T09:45:03.117Z,10.10
2023-04-13T09:46:03.137Z,10.10
2023-04-13T09:47:03.086Z,10.10
2023-04-13T09:48:03.282Z,10.10
2023-04-13T09:49:03.221Z,10.20
2023-04-13T09:50:03.098Z,10.20
2023-04-13T09:51:03.068Z,10.20
2023-04-13T09:52:03.047Z,10.20
2023-04-13T09:53:03.171Z,10.20
2023-04-13T09:54:03.260Z,10.20
2023-04-13T09:55:03.289Z,10.20
2023-04-13T09:56:03.302Z,10.20
2023-04-13T09:57:03.188Z,10.20
2023-04-13T09:58:03.174Z,10.20
2023-04-13T09:59:03.240Z,10.20
2023-04-13T10:00:03.259Z,10.20
2023-04-13T10:01:03.245Z,10.10
2023-04-13T10:02:03.511Z,10.10
2023-04-13T10:03:03.495Z,10.10
2023-04-13T10:04:03.563Z,10.10
2023-04-13T10:05:03.527Z,10.10
2023-04-13T10:06:03.546Z,10.10
2023-04-13T10:07:03.573Z,10.10
2023-04-13T10:08:02.701Z,10.10
2023-04-13T10:09:02.808Z,10.10
2023-04-13T10:10:02.851Z,10.00
2023-04-13T10:11:02.754Z,10.00
2023-04-13T10:12:02.731Z,10.00
2023-04-13T10:13:02.799Z,10.00
2023-04-13T10:14:02.808Z,10.00
2023-04-13T10:15:02.796Z,10.00
2023-04-13T10:16:04.246Z,10.00
2023-04-13T10:17:02.772Z,10.00
2023-04-13T10:18:02.845Z,10.00
2023-04-13T10:19:02.703Z,10.00
2023-04-13T10:20:02.740Z,10.00
2023-04-13T10:21:02.705Z,10.00
2023-04-13T10:22:02.754Z,10.00
2023-04-13T10:23:03.133Z,10.00
2023-04-13T10:24:03.309Z,10.00
2023-04-13T10:25:03.140Z,10.00
2023-04-13T10:26:03.301Z,10.00
2023-04-13T10:27:03.393Z,10.10
2023-04-13T10:28:03.325Z,10.10
2023-04-13T10:29:03.354Z,10.10
2023-04-13T10:30:03.473Z,10.10
2023-04-13T10:31:03.493Z,10.20
2023-04-13T10:32:04.018Z,10.20
2023-04-13T10:33:03.591Z,10.20
2023-04-13T10:34:02.637Z,10.20
2023-04-13T10:35:02.712Z,10.20
2023-04-13T10:36:02.646Z,10.20
2023-04-13T10:37:02.777Z,10.20
2023-04-13T10:38:02.757Z,10.30
2023-04-13T10:39:02.657Z,10.30
2023-04-13T10:40:02.756Z,10.30
2023-04-13T10:41:02.728Z,10.30
2023-04-13T10:42:03.642Z,10.40
2023-04-13T10:43:03.616Z,10.40
2023-04-13T10:44:02.718Z,10.40
2023-04-13T10:45:02.729Z,10.50
2023-04-13T10:46:03.010Z,10.50
2023-04-13T10:47:02.932Z,10.50
2023-04-13T10:48:02.923Z,10.50
2023-04-13T10:49:02.848Z,10.50
2023-04-13T10:50:02.741Z,10.50
2023-04-13T10:51:02.754Z,10.50
2023-04-13T10:52:02.737Z,10.40
2023-04-13T10:53:02.725Z,10.40
2023-04-13T10:54:02.774Z,10.40
2023-04-13T10:55:02.906Z,10.40
2023-04-13T10:56:02.811Z,10.40
2023-04-13T10:57:02.857Z,10.40
2023-04-13T10:58:02.943Z,10.30
2023-04-13T10:59:02.832Z,10.30
2023-04-13T11:00:02.808Z,10.30
2023-04-13T11:01:02.993Z,10.30
2023-04-13T11:02:02.978Z,10.30
2023-04-13T11:03:03.158Z,10.30
2023-04-13T11:04:05.782Z,10.30
2023-04-13T11:05:03.016Z,10.30
2023-04-13T11:06:02.829Z,10.20
2023-04-13T11:07:02.804Z,10.20
2023-04-13T11:08:02.864Z,10.20
2023-04-13T11:09:02.999Z,10.20
2023-04-13T11:10:03.646Z,10.20
2023-04-13T11:11:03.012Z,10.20
2023-04-13T11:12:02.963Z,10.20
2023-04-13T11:13:02.983Z,10.20
2023-04-13T11:14:03.013Z,10.20
2023-04-13T11:15:03.051Z,10.20
2023-04-13T11:16:03.188Z,10.20
2023-04-13T11:17:03.289Z,10.20
2023-04-13T11:18:03.134Z,10.20
2023-04-13T11:19:03.096Z,10.20
2023-04-13T11:20:03.219Z,10.20
2023-04-13T11:21:04.608Z,10.30
2023-04-13T11:22:03.084Z,10.30
2023-04-13T11:23:03.168Z,10.30
2023-04-13T11:24:03.105Z,10.40
2023-04-13T11:25:03.101Z,10.40
2023-04-13T11:26:03.106Z,10.50
2023-04-13T11:27:03.278Z,10.50
2023-04-13T11:28:03.135Z,10.60
2023-04-13T11:29:03.215Z,10.60
2023-04-13T11:30:03.178Z,10.70
2023-04-13T11:31:03.058Z,10.80
2023-04-13T11:32:03.122Z,10.80
2023-04-13T11:33:03.059Z,10.90
2023-04-13T11:34:03.062Z,11.00
2023-04-13T11:35:03.198Z,11.00
2023-04-13T11:36:03.111Z,11.10
2023-04-13T11:37:03.180Z,11.10
2023-04-13T11:38:03.168Z,11.20
2023-04-13T11:39:03.170Z,11.20
2023-04-13T11:40:03.049Z,11.30
2023-04-13T11:41:14.711Z,11.30
2023-04-13T11:42:03.213Z,11.30
2023-04-13T11:43:03.097Z,11.40
2023-04-13T11:44:03.198Z,11.40
2023-04-13T11:45:03.163Z,11.40
2023-04-13T11:46:03.269Z,11.50
2023-04-13T11:47:03.256Z,11.50
2023-04-13T11:48:03.372Z,11.50
2023-04-13T11:49:02.942Z,11.50
2023-04-13T11:50:02.897Z,11.50
2023-04-13T11:51:03.013Z,11.50
2023-04-13T11:52:03.155Z,11.50
2023-04-13T11:53:03.068Z,11.50
2023-04-13T11:54:03.040Z,11.50
2023-04-13T11:55:11.031Z,11.50
2023-04-13T11:56:03.032Z,11.50
2023-04-13T11:57:03.053Z,11.50
2023-04-13T11:58:03.154Z,11.50
2023-04-13T11:59:03.391Z,11.50
2023-04-13T12:00:03.352Z,11.50
2023-04-13T12:01:04.959Z,11.50
2023-04-13T12:02:05.119Z,11.50
2023-04-13T12:03:04.798Z,11.40
2023-04-13T12:04:12.556Z,11.40
2023-04-13T12:05:03.569Z,11.40
2023-04-13T12:06:03.652Z,11.40
2023-04-13T12:07:03.906Z,11.40
2023-04-13T12:08:04.746Z,11.50
2023-04-13T12:09:09.722Z,11.50
2023-04-13T12:10:05.653Z,11.50
2023-04-13T12:12:29.661Z,11.50
2023-04-13T12:13:17.118Z,11.50
2023-04-13T12:14:09.066Z,11.50
2023-04-13T12:15:15.764Z,11.50
2023-04-13T12:16:09.390Z,11.50
2023-04-13T12:17:07.780Z,11.50
2023-04-13T12:18:13.280Z,11.50
2023-04-13T12:19:03.563Z,11.50
2023-04-13T12:20:03.870Z,11.60
2023-04-13T12:21:03.189Z,11.60
2023-04-13T12:22:03.502Z,11.70
2023-04-13T12:23:12.090Z,11.70
2023-04-13T12:24:05.414Z,11.70
2023-04-13T12:25:03.302Z,11.80
2023-04-13T12:26:18.731Z,11.80
2023-04-13T12:28:03.471Z,11.80
2023-04-13T12:29:03.397Z,11.90
2023-04-13T12:30:03.561Z,11.90
2023-04-13T12:31:02.838Z,11.90
2023-04-13T12:32:02.735Z,11.90
2023-04-13T12:33:02.798Z,11.90
2023-04-13T12:34:02.679Z,11.90
2023-04-13T12:35:02.750Z,12.00
2023-04-13T12:36:02.754Z,12.00
2023-04-13T12:37:02.690Z,12.00
2023-04-13T12:38:02.736Z,12.00
2023-04-13T12:39:02.841Z,12.00
2023-04-13T12:40:02.908Z,12.00
2023-04-13T12:41:02.874Z,12.10
2023-04-13T12:42:02.934Z,12.10
2023-04-13T12:43:03.037Z,12.10
2023-04-13T12:44:02.978Z,12.10
2023-04-13T12:45:03.118Z,12.10
2023-04-13T12:46:03.149Z,12.10
2023-04-13T12:47:03.208Z,12.10
2023-04-13T12:48:03.262Z,12.10
2023-04-13T12:49:03.368Z,12.10
2023-04-13T12:50:03.176Z,12.20
2023-04-13T12:51:03.148Z,12.20
2023-04-13T12:52:03.290Z,12.20
2023-04-13T12:53:03.242Z,12.20
2023-04-13T12:54:03.257Z,12.20
2023-04-13T12:55:03.368Z,12.20
2023-04-13T12:56:03.380Z,12.20
2023-04-13T12:57:03.446Z,12.20
2023-04-13T12:58:03.357Z,12.20
2023-04-13T12:59:03.474Z,12.20
2023-04-13T13:00:03.421Z,12.20
2023-04-13T13:01:03.580Z,12.20
2023-04-13T13:02:03.741Z,12.20
2023-04-13T13:03:13.306Z,12.20
2023-04-13T13:04:03.665Z,12.20
2023-04-13T13:05:02.718Z,12.20
2023-04-13T13:06:02.722Z,12.20
2023-04-13T13:07:02.963Z,12.20
2023-04-13T13:08:02.947Z,12.30
2023-04-13T13:09:02.963Z,12.30
2023-04-13T13:10:02.855Z,12.30
2023-04-13T13:11:02.941Z,12.30
2023-04-13T13:12:03.014Z,12.30
2023-04-13T13:13:03.369Z,12.40